Huvudsida
METAR-TAF:

METAR-TAF

Flygplatser :

Buochs flygplats

Buochs, Schweiz

latitud: 46-58-28N, longitud: 8-23-49E, höjd: 449 m

Aktuellt väderrapport

Denna rapport gjordes för 28 minuter sedan, klockan 04:20 UTC
Vind 3 kt från väst/sydväst
Temperatur 17°C
Fuktighet 72%
Tryck 1017 hPa
Sikt 10 km eller mer
Inga moln under 1 500 m eller inga cumulonimbus

METAR: LSZC 190420Z AUTO 24003KT CAVOK 17/12 Q1017

Tid: 06:48 (04:48 UTC)

Väderprognos

Denna rapport gjordes för 14 timmar och 23 minuter sedan, klockan 14:25 UTC
Prognos gäller från 18 kl. 15 UTC till 18 kl. 24 UTC
Vind 6 kt från nordost
Sikt 10 km eller mer
Få moln på en höjd av 7000 ft
Sannolikhet 40% :
Temporärt
från 18 kl. 18 UTC till 18 kl. 24 UTC
Sikt 10 km eller mer
Inga moln under 1 500 m eller inga cumulonimbus

TAF: LSZC 181425Z 1815/1824 04006KT 9999 FEW070 PROB40 TEMPO 1818/1824 CAVOK

Aktuella väderrapporter och prognoser från 4000 flygplatser (METAR- och TAF-rapporter).

De tillgängliga stationerna syns som gula och röda prickar på kartan.

För musen över prickarna för att se namnen på stationerna.

Klicka sedan för att få väderrapporter och prognoser.

För att ändra kartan: Klicka på de gröna knapparna med ett svart kors på för att zooma in; den gröna knappen med ett streck på för att zooma ut; eller på de gröna pilarna för angränsande kartor.


METAR-TAF: